メインページ
METAR-TAF:

METAR-TAF

空港 :

ピーターボロ, オンタリオ州, カナダ

緯度: 44-14N, 経度: 078-22W, 海抜: 191m

現時点の気象観測

当レポートは30分前の17:00(UTC)に作成
北西の風 12kt、最大20ktの突風を伴う、西から北/北西の間で変化する
気温 27°C
湿度 51%
気圧 1011 hPa
視程: 14.5km
高度13000ftの千切れ雲あり

METAR: CYPQ 211700Z AUTO 31012G20KT 270V330 9SM BKN130 27/16 A2984 RMK SLP105 DENSITY ALT 2200FT

時間: 13:30 (17:30 UTC)

予報

当レポートは3時間51分前の13:39(UTC)に作成
予報は21日の 14時(UTC)から 22日の 02時(UTC)まで有効
西/北西の風 10kt
視程: 10km
高度14000ftの千切れ雲あり

TAF: CYPQ 211339Z 2114/2202 29010KT P6SM BKN140 RMK FCST BASED ON AUTO OBS. NXT FCST BY 212000Z

4,000以上の空港の気象観測と天気予報(METAR報とTAF報)

利用可能な観測所は地図上に黄色い丸と赤い丸で示す。

丸の上にカーソルを重ねると観測所名を参照できる。

次にクリックすると気象観測と天気予報を参照できる。

マップの切り替え:黒色「×」印の緑ボタンをクリックして拡大、「-」印の緑ボタンをクリックして縮小、緑色の三角印をクリックして隣りの地図に切り替え


METAR-TAF: